Terminal Aerodrome Forecast
Issued by NWS Mt. Holly, NJ

Home | Current Version | Previous Version | Text Only | Print | Product List | Glossary On
Versions: 1 2 3 4 5 6 7 8 9 10 11 12 13 14 15 16 17 18 19 20 21
000
FTUS41 KPHI 291721
TAFRDG
TAF
KRDG 291721Z 2918/3018 12003KT 6SM BR OVC010
     FM291900 13004KT P6SM BKN015
     FM300100 13005KT 4SM BR OVC012
     FM300400 12003KT 4SM BR OVC006
      TEMPO 3008/3011 2SM BR OVC003
     FM301500 11004KT 2SM BR OVC007=

USA.gov is the U.S. government's official web portal to all federal, state and local government web resources and services.